sensor_id;sensor_type;location;lat;lon;timestamp;temperature;humidity
25128;DHT22;13107;51.304;6.866;2023-09-18T00:02:19;17.10;99.90
25128;DHT22;13107;51.304;6.866;2023-09-18T00:06:21;17.10;99.90
25128;DHT22;13107;51.304;6.866;2023-09-18T00:10:26;17.10;99.90
25128;DHT22;13107;51.304;6.866;2023-09-18T00:14:28;17.10;99.90
25128;DHT22;13107;51.304;6.866;2023-09-18T00:18:29;17.10;99.90
25128;DHT22;13107;51.304;6.866;2023-09-18T00:22:31;17.10;99.90
25128;DHT22;13107;51.304;6.866;2023-09-18T00:26:33;17.00;99.90
25128;DHT22;13107;51.304;6.866;2023-09-18T00:30:37;17.00;99.90
25128;DHT22;13107;51.304;6.866;2023-09-18T00:34:39;16.90;99.90
25128;DHT22;13107;51.304;6.866;2023-09-18T00:38:41;16.90;99.90
25128;DHT22;13107;51.304;6.866;2023-09-18T00:42:43;16.80;99.90
25128;DHT22;13107;51.304;6.866;2023-09-18T00:46:44;16.90;99.90
25128;DHT22;13107;51.304;6.866;2023-09-18T00:50:46;16.80;99.90
25128;DHT22;13107;51.304;6.866;2023-09-18T00:54:50;16.80;99.90
25128;DHT22;13107;51.304;6.866;2023-09-18T00:58:52;16.70;99.90
25128;DHT22;13107;51.304;6.866;2023-09-18T01:02:54;16.70;99.90
25128;DHT22;13107;51.304;6.866;2023-09-18T01:06:56;16.70;99.90
25128;DHT22;13107;51.304;6.866;2023-09-18T01:11:30;16.70;99.90
25128;DHT22;13107;51.304;6.866;2023-09-18T01:15:38;16.70;99.90
25128;DHT22;13107;51.304;6.866;2023-09-18T01:19:45;16.60;99.90
25128;DHT22;13107;51.304;6.866;2023-09-18T01:23:48;16.70;99.90
25128;DHT22;13107;51.304;6.866;2023-09-18T01:27:50;16.70;99.90
25128;DHT22;13107;51.304;6.866;2023-09-18T01:31:54;16.60;99.90
25128;DHT22;13107;51.304;6.866;2023-09-18T01:35:56;16.60;99.90
25128;DHT22;13107;51.304;6.866;2023-09-18T01:39:58;16.60;99.90
25128;DHT22;13107;51.304;6.866;2023-09-18T01:44:01;16.60;99.90
25128;DHT22;13107;51.304;6.866;2023-09-18T01:48:05;16.60;99.90
25128;DHT22;13107;51.304;6.866;2023-09-18T01:52:08;16.60;99.90
25128;DHT22;13107;51.304;6.866;2023-09-18T01:56:10;16.50;99.90
25128;DHT22;13107;51.304;6.866;2023-09-18T02:00:13;16.50;99.90
25128;DHT22;13107;51.304;6.866;2023-09-18T02:04:16;16.50;99.90
25128;DHT22;13107;51.304;6.866;2023-09-18T02:08:38;16.50;99.90
25128;DHT22;13107;51.304;6.866;2023-09-18T02:12:40;16.50;99.90
25128;DHT22;13107;51.304;6.866;2023-09-18T02:16:43;16.50;99.90
25128;DHT22;13107;51.304;6.866;2023-09-18T02:20:45;16.50;99.90
25128;DHT22;13107;51.304;6.866;2023-09-18T02:24:50;16.50;99.90
25128;DHT22;13107;51.304;6.866;2023-09-18T02:28:53;16.50;99.90
25128;DHT22;13107;51.304;6.866;2023-09-18T02:32:55;16.50;99.90
25128;DHT22;13107;51.304;6.866;2023-09-18T02:36:57;16.50;99.90
25128;DHT22;13107;51.304;6.866;2023-09-18T02:40:59;16.50;99.90
25128;DHT22;13107;51.304;6.866;2023-09-18T02:45:01;16.50;99.90
25128;DHT22;13107;51.304;6.866;2023-09-18T02:49:03;16.50;99.90
25128;DHT22;13107;51.304;6.866;2023-09-18T02:53:06;16.60;99.90
25128;DHT22;13107;51.304;6.866;2023-09-18T02:57:10;16.80;99.90
25128;DHT22;13107;51.304;6.866;2023-09-18T03:01:12;17.10;99.90
25128;DHT22;13107;51.304;6.866;2023-09-18T03:05:13;17.30;99.90
25128;DHT22;13107;51.304;6.866;2023-09-18T03:09:15;17.50;99.90
25128;DHT22;13107;51.304;6.866;2023-09-18T03:13:18;17.70;99.90
25128;DHT22;13107;51.304;6.866;2023-09-18T03:17:19;17.80;99.90
25128;DHT22;13107;51.304;6.866;2023-09-18T03:21:22;18.00;99.90
25128;DHT22;13107;51.304;6.866;2023-09-18T03:25:24;18.10;99.90
25128;DHT22;13107;51.304;6.866;2023-09-18T03:29:26;18.10;99.90
25128;DHT22;13107;51.304;6.866;2023-09-18T03:33:27;18.20;99.90
25128;DHT22;13107;51.304;6.866;2023-09-18T03:37:30;18.30;99.90
25128;DHT22;13107;51.304;6.866;2023-09-18T03:41:31;18.40;99.90
25128;DHT22;13107;51.304;6.866;2023-09-18T03:45:36;18.50;99.90
25128;DHT22;13107;51.304;6.866;2023-09-18T03:49:37;18.60;99.90
25128;DHT22;13107;51.304;6.866;2023-09-18T03:53:39;18.60;99.90
25128;DHT22;13107;51.304;6.866;2023-09-18T03:57:42;18.60;99.90
25128;DHT22;13107;51.304;6.866;2023-09-18T04:01:44;18.60;99.90
25128;DHT22;13107;51.304;6.866;2023-09-18T04:05:46;18.70;99.90
25128;DHT22;13107;51.304;6.866;2023-09-18T04:09:48;18.70;99.90
25128;DHT22;13107;51.304;6.866;2023-09-18T04:13:50;18.80;99.90
25128;DHT22;13107;51.304;6.866;2023-09-18T04:17:52;18.80;99.90
25128;DHT22;13107;51.304;6.866;2023-09-18T04:21:54;19.00;99.90
25128;DHT22;13107;51.304;6.866;2023-09-18T04:25:56;19.00;99.90
25128;DHT22;13107;51.304;6.866;2023-09-18T04:30:00;19.10;99.90
25128;DHT22;13107;51.304;6.866;2023-09-18T04:34:02;19.00;99.90
25128;DHT22;13107;51.304;6.866;2023-09-18T04:38:06;19.10;99.90
25128;DHT22;13107;51.304;6.866;2023-09-18T04:42:08;19.20;99.90
25128;DHT22;13107;51.304;6.866;2023-09-18T04:46:10;19.10;99.90
25128;DHT22;13107;51.304;6.866;2023-09-18T04:50:11;19.20;99.90
25128;DHT22;13107;51.304;6.866;2023-09-18T04:54:20;19.20;99.90
25128;DHT22;13107;51.304;6.866;2023-09-18T04:58:22;19.30;99.90
25128;DHT22;13107;51.304;6.866;2023-09-18T05:02:24;19.20;99.90
25128;DHT22;13107;51.304;6.866;2023-09-18T05:06:27;19.10;99.90
25128;DHT22;13107;51.304;6.866;2023-09-18T05:10:30;19.10;99.90
25128;DHT22;13107;51.304;6.866;2023-09-18T05:14:32;19.10;99.90
25128;DHT22;13107;51.304;6.866;2023-09-18T05:18:35;19.30;99.90
25128;DHT22;13107;51.304;6.866;2023-09-18T05:22:36;19.30;99.90
25128;DHT22;13107;51.304;6.866;2023-09-18T05:26:38;19.20;99.90
25128;DHT22;13107;51.304;6.866;2023-09-18T05:30:40;19.20;99.90
25128;DHT22;13107;51.304;6.866;2023-09-18T05:34:42;19.20;99.90
25128;DHT22;13107;51.304;6.866;2023-09-18T05:38:44;19.10;99.90
25128;DHT22;13107;51.304;6.866;2023-09-18T05:42:46;19.20;99.90
25128;DHT22;13107;51.304;6.866;2023-09-18T05:46:48;19.10;99.90
25128;DHT22;13107;51.304;6.866;2023-09-18T05:50:49;19.00;99.90
25128;DHT22;13107;51.304;6.866;2023-09-18T05:54:51;19.10;99.90
25128;DHT22;13107;51.304;6.866;2023-09-18T05:58:53;19.20;99.90
25128;DHT22;13107;51.304;6.866;2023-09-18T06:02:56;19.10;99.90
25128;DHT22;13107;51.304;6.866;2023-09-18T06:06:58;19.20;99.90
25128;DHT22;13107;51.304;6.866;2023-09-18T06:11:00;19.20;99.90
25128;DHT22;13107;51.304;6.866;2023-09-18T06:15:02;19.30;99.90
25128;DHT22;13107;51.304;6.866;2023-09-18T06:19:05;19.30;99.90
25128;DHT22;13107;51.304;6.866;2023-09-18T06:23:07;19.30;99.90
25128;DHT22;13107;51.304;6.866;2023-09-18T06:27:09;19.30;99.90
25128;DHT22;13107;51.304;6.866;2023-09-18T06:31:12;19.40;99.90
25128;DHT22;13107;51.304;6.866;2023-09-18T06:35:14;19.40;99.90
25128;DHT22;13107;51.304;6.866;2023-09-18T06:39:16;19.50;99.90
25128;DHT22;13107;51.304;6.866;2023-09-18T06:43:17;19.50;99.90
25128;DHT22;13107;51.304;6.866;2023-09-18T06:47:19;19.50;99.90
25128;DHT22;13107;51.304;6.866;2023-09-18T06:51:22;19.60;99.90
25128;DHT22;13107;51.304;6.866;2023-09-18T06:55:43;19.60;99.90
25128;DHT22;13107;51.304;6.866;2023-09-18T06:59:44;19.70;99.90
25128;DHT22;13107;51.304;6.866;2023-09-18T07:03:47;19.80;99.90
25128;DHT22;13107;51.304;6.866;2023-09-18T07:07:49;19.80;99.90
25128;DHT22;13107;51.304;6.866;2023-09-18T07:11:51;19.80;99.90
25128;DHT22;13107;51.304;6.866;2023-09-18T07:15:52;19.90;99.90
25128;DHT22;13107;51.304;6.866;2023-09-18T07:19:54;20.00;99.90
25128;DHT22;13107;51.304;6.866;2023-09-18T07:23:56;20.00;99.90
25128;DHT22;13107;51.304;6.866;2023-09-18T07:27:58;20.00;99.90
25128;DHT22;13107;51.304;6.866;2023-09-18T07:32:00;20.10;99.90
25128;DHT22;13107;51.304;6.866;2023-09-18T07:36:03;20.20;99.90
25128;DHT22;13107;51.304;6.866;2023-09-18T07:40:08;20.30;99.90
25128;DHT22;13107;51.304;6.866;2023-09-18T07:44:10;20.30;99.90
25128;DHT22;13107;51.304;6.866;2023-09-18T07:48:11;20.30;99.90
25128;DHT22;13107;51.304;6.866;2023-09-18T07:52:13;20.30;99.90
25128;DHT22;13107;51.304;6.866;2023-09-18T07:56:16;20.40;99.90
25128;DHT22;13107;51.304;6.866;2023-09-18T08:00:18;20.30;99.90
25128;DHT22;13107;51.304;6.866;2023-09-18T08:04:20;20.40;99.90
25128;DHT22;13107;51.304;6.866;2023-09-18T08:08:23;20.30;99.90
25128;DHT22;13107;51.304;6.866;2023-09-18T08:12:26;20.30;99.90
25128;DHT22;13107;51.304;6.866;2023-09-18T08:16:28;20.40;99.90
25128;DHT22;13107;51.304;6.866;2023-09-18T08:20:31;20.50;99.90
25128;DHT22;13107;51.304;6.866;2023-09-18T08:24:34;20.50;99.90
25128;DHT22;13107;51.304;6.866;2023-09-18T08:28:36;20.40;99.90
25128;DHT22;13107;51.304;6.866;2023-09-18T08:32:44;20.40;99.90
25128;DHT22;13107;51.304;6.866;2023-09-18T08:36:47;20.50;99.90
25128;DHT22;13107;51.304;6.866;2023-09-18T08:40:48;20.60;99.90
25128;DHT22;13107;51.304;6.866;2023-09-18T08:44:51;20.60;99.90
25128;DHT22;13107;51.304;6.866;2023-09-18T08:48:55;20.70;99.90
25128;DHT22;13107;51.304;6.866;2023-09-18T08:52:57;20.70;99.90
25128;DHT22;13107;51.304;6.866;2023-09-18T08:56:59;20.80;99.90
25128;DHT22;13107;51.304;6.866;2023-09-18T09:01:02;20.90;99.90
25128;DHT22;13107;51.304;6.866;2023-09-18T09:05:06;21.00;99.90
25128;DHT22;13107;51.304;6.866;2023-09-18T09:09:08;21.10;99.90
25128;DHT22;13107;51.304;6.866;2023-09-18T09:13:09;21.20;99.90
25128;DHT22;13107;51.304;6.866;2023-09-18T09:17:18;21.30;99.90
25128;DHT22;13107;51.304;6.866;2023-09-18T09:21:20;21.50;99.90
25128;DHT22;13107;51.304;6.866;2023-09-18T09:25:23;21.60;99.90
25128;DHT22;13107;51.304;6.866;2023-09-18T09:29:27;21.60;99.90
25128;DHT22;13107;51.304;6.866;2023-09-18T09:33:30;21.80;99.90
25128;DHT22;13107;51.304;6.866;2023-09-18T09:37:32;21.70;99.90
25128;DHT22;13107;51.304;6.866;2023-09-18T09:41:34;21.70;99.90
25128;DHT22;13107;51.304;6.866;2023-09-18T09:45:37;21.70;99.90
25128;DHT22;13107;51.304;6.866;2023-09-18T09:49:47;21.60;99.90
25128;DHT22;13107;51.304;6.866;2023-09-18T09:53:49;21.60;99.90
25128;DHT22;13107;51.304;6.866;2023-09-18T09:58:00;21.80;99.90
25128;DHT22;13107;51.304;6.866;2023-09-18T10:02:02;22.20;99.90
25128;DHT22;13107;51.304;6.866;2023-09-18T10:06:05;23.10;99.90
25128;DHT22;13107;51.304;6.866;2023-09-18T10:10:08;23.20;99.90
25128;DHT22;13107;51.304;6.866;2023-09-18T10:14:20;23.90;99.90
25128;DHT22;13107;51.304;6.866;2023-09-18T10:22:32;24.20;99.90
25128;DHT22;13107;51.304;6.866;2023-09-18T10:26:44;24.40;99.90
25128;DHT22;13107;51.304;6.866;2023-09-18T10:30:51;24.60;99.90
25128;DHT22;13107;51.304;6.866;2023-09-18T10:34:53;25.40;99.90
25128;DHT22;13107;51.304;6.866;2023-09-18T10:38:56;25.90;99.90
25128;DHT22;13107;51.304;6.866;2023-09-18T10:43:02;26.00;99.90
25128;DHT22;13107;51.304;6.866;2023-09-18T10:47:08;25.70;99.90
25128;DHT22;13107;51.304;6.866;2023-09-18T10:51:10;25.90;99.90
25128;DHT22;13107;51.304;6.866;2023-09-18T10:55:13;25.90;99.90
25128;DHT22;13107;51.304;6.866;2023-09-18T10:59:15;25.60;99.90
25128;DHT22;13107;51.304;6.866;2023-09-18T11:03:22;26.00;99.90
25128;DHT22;13107;51.304;6.866;2023-09-18T11:07:24;25.80;99.90
25128;DHT22;13107;51.304;6.866;2023-09-18T11:11:27;26.20;99.90
25128;DHT22;13107;51.304;6.866;2023-09-18T11:15:32;26.60;99.90
25128;DHT22;13107;51.304;6.866;2023-09-18T11:19:34;26.30;99.90
25128;DHT22;13107;51.304;6.866;2023-09-18T11:23:42;26.20;99.90
25128;DHT22;13107;51.304;6.866;2023-09-18T11:27:54;25.10;99.90
25128;DHT22;13107;51.304;6.866;2023-09-18T11:31:57;24.40;99.90
25128;DHT22;13107;51.304;6.866;2023-09-18T11:40:29;24.50;99.90
25128;DHT22;13107;51.304;6.866;2023-09-18T11:44:36;24.10;99.90
25128;DHT22;13107;51.304;6.866;2023-09-18T11:48:42;24.10;99.90
25128;DHT22;13107;51.304;6.866;2023-09-18T11:52:45;24.00;99.90
25128;DHT22;13107;51.304;6.866;2023-09-18T11:56:47;23.60;99.90
25128;DHT22;13107;51.304;6.866;2023-09-18T12:00:50;23.40;99.90
25128;DHT22;13107;51.304;6.866;2023-09-18T12:04:52;23.60;99.90
25128;DHT22;13107;51.304;6.866;2023-09-18T12:08:55;24.00;99.90
25128;DHT22;13107;51.304;6.866;2023-09-18T12:12:58;24.30;99.90
25128;DHT22;13107;51.304;6.866;2023-09-18T12:17:01;24.30;99.90
25128;DHT22;13107;51.304;6.866;2023-09-18T12:21:07;24.30;99.90
25128;DHT22;13107;51.304;6.866;2023-09-18T12:25:13;24.20;99.90
25128;DHT22;13107;51.304;6.866;2023-09-18T12:29:22;24.10;99.90
25128;DHT22;13107;51.304;6.866;2023-09-18T12:33:25;24.00;99.90
25128;DHT22;13107;51.304;6.866;2023-09-18T12:37:27;24.00;99.90
25128;DHT22;13107;51.304;6.866;2023-09-18T12:41:29;24.30;99.90
25128;DHT22;13107;51.304;6.866;2023-09-18T12:45:34;24.30;99.90
25128;DHT22;13107;51.304;6.866;2023-09-18T12:49:36;24.20;99.90
25128;DHT22;13107;51.304;6.866;2023-09-18T12:53:39;24.30;99.90
25128;DHT22;13107;51.304;6.866;2023-09-18T12:57:41;24.40;99.90
25128;DHT22;13107;51.304;6.866;2023-09-18T13:01:46;24.50;99.90
25128;DHT22;13107;51.304;6.866;2023-09-18T13:05:52;24.40;99.90
25128;DHT22;13107;51.304;6.866;2023-09-18T13:14:01;24.60;99.90
25128;DHT22;13107;51.304;6.866;2023-09-18T13:18:14;24.60;99.90
25128;DHT22;13107;51.304;6.866;2023-09-18T13:22:24;24.40;99.90
25128;DHT22;13107;51.304;6.866;2023-09-18T13:26:26;24.50;99.90
25128;DHT22;13107;51.304;6.866;2023-09-18T13:30:28;24.60;99.90
25128;DHT22;13107;51.304;6.866;2023-09-18T13:34:30;24.70;99.90
25128;DHT22;13107;51.304;6.866;2023-09-18T13:38:32;24.80;99.90
25128;DHT22;13107;51.304;6.866;2023-09-18T13:42:40;24.70;99.90
25128;DHT22;13107;51.304;6.866;2023-09-18T13:46:42;24.60;99.90
25128;DHT22;13107;51.304;6.866;2023-09-18T13:50:44;24.40;99.90
25128;DHT22;13107;51.304;6.866;2023-09-18T13:54:47;24.30;99.90
25128;DHT22;13107;51.304;6.866;2023-09-18T13:58:54;24.50;99.90
25128;DHT22;13107;51.304;6.866;2023-09-18T14:02:55;24.60;99.90
25128;DHT22;13107;51.304;6.866;2023-09-18T14:06:57;24.60;99.90
25128;DHT22;13107;51.304;6.866;2023-09-18T14:11:00;24.50;99.90
25128;DHT22;13107;51.304;6.866;2023-09-18T14:15:06;24.50;99.90
25128;DHT22;13107;51.304;6.866;2023-09-18T14:19:08;24.50;99.90
25128;DHT22;13107;51.304;6.866;2023-09-18T14:23:12;24.40;99.90
25128;DHT22;13107;51.304;6.866;2023-09-18T14:27:14;24.50;99.90
25128;DHT22;13107;51.304;6.866;2023-09-18T14:31:16;24.70;99.90
25128;DHT22;13107;51.304;6.866;2023-09-18T14:35:18;24.70;99.90
25128;DHT22;13107;51.304;6.866;2023-09-18T14:39:20;24.60;99.90
25128;DHT22;13107;51.304;6.866;2023-09-18T14:43:22;24.50;99.90
25128;DHT22;13107;51.304;6.866;2023-09-18T14:47:24;24.40;99.90
25128;DHT22;13107;51.304;6.866;2023-09-18T14:51:26;24.20;99.90
25128;DHT22;13107;51.304;6.866;2023-09-18T14:55:28;24.20;99.90
25128;DHT22;13107;51.304;6.866;2023-09-18T14:59:31;24.20;99.90
25128;DHT22;13107;51.304;6.866;2023-09-18T15:03:43;23.90;99.90
25128;DHT22;13107;51.304;6.866;2023-09-18T15:07:46;24.00;99.90
25128;DHT22;13107;51.304;6.866;2023-09-18T15:11:48;24.00;99.90
25128;DHT22;13107;51.304;6.866;2023-09-18T15:15:50;24.00;99.90
25128;DHT22;13107;51.304;6.866;2023-09-18T15:19:52;24.00;99.90
25128;DHT22;13107;51.304;6.866;2023-09-18T15:23:56;23.90;99.90
25128;DHT22;13107;51.304;6.866;2023-09-18T15:27:59;23.90;99.90
25128;DHT22;13107;51.304;6.866;2023-09-18T15:32:01;23.80;99.90
25128;DHT22;13107;51.304;6.866;2023-09-18T15:36:07;23.80;99.90
25128;DHT22;13107;51.304;6.866;2023-09-18T15:40:10;23.80;99.90
25128;DHT22;13107;51.304;6.866;2023-09-18T15:44:12;23.60;99.90
25128;DHT22;13107;51.304;6.866;2023-09-18T15:48:15;23.60;99.90
25128;DHT22;13107;51.304;6.866;2023-09-18T15:52:19;23.70;99.90
25128;DHT22;13107;51.304;6.866;2023-09-18T15:56:21;23.70;99.90
25128;DHT22;13107;51.304;6.866;2023-09-18T16:00:23;23.70;99.90
25128;DHT22;13107;51.304;6.866;2023-09-18T16:04:25;23.60;99.90
25128;DHT22;13107;51.304;6.866;2023-09-18T16:08:27;23.50;99.90
25128;DHT22;13107;51.304;6.866;2023-09-18T16:12:31;23.50;99.90
25128;DHT22;13107;51.304;6.866;2023-09-18T16:16:35;23.40;99.90
25128;DHT22;13107;51.304;6.866;2023-09-18T16:20:36;23.40;99.90
25128;DHT22;13107;51.304;6.866;2023-09-18T16:24:39;23.40;99.90
25128;DHT22;13107;51.304;6.866;2023-09-18T16:28:41;23.40;99.90
25128;DHT22;13107;51.304;6.866;2023-09-18T16:32:43;23.40;99.90
25128;DHT22;13107;51.304;6.866;2023-09-18T16:36:44;23.20;99.90
25128;DHT22;13107;51.304;6.866;2023-09-18T16:40:46;23.10;99.90
25128;DHT22;13107;51.304;6.866;2023-09-18T16:44:49;23.00;99.90
25128;DHT22;13107;51.304;6.866;2023-09-18T16:48:51;22.90;99.90
25128;DHT22;13107;51.304;6.866;2023-09-18T16:52:56;22.80;99.90
25128;DHT22;13107;51.304;6.866;2023-09-18T16:56:58;22.70;99.90
25128;DHT22;13107;51.304;6.866;2023-09-18T17:01:00;22.60;99.90
25128;DHT22;13107;51.304;6.866;2023-09-18T17:05:02;22.50;99.90
25128;DHT22;13107;51.304;6.866;2023-09-18T17:09:06;22.40;99.90
25128;DHT22;13107;51.304;6.866;2023-09-18T17:13:09;22.40;99.90
25128;DHT22;13107;51.304;6.866;2023-09-18T17:17:11;22.40;99.90
25128;DHT22;13107;51.304;6.866;2023-09-18T17:21:13;22.30;99.90
25128;DHT22;13107;51.304;6.866;2023-09-18T17:25:14;22.20;99.90
25128;DHT22;13107;51.304;6.866;2023-09-18T17:29:17;22.20;99.90
25128;DHT22;13107;51.304;6.866;2023-09-18T17:33:18;22.10;99.90
25128;DHT22;13107;51.304;6.866;2023-09-18T17:37:20;22.00;99.90
25128;DHT22;13107;51.304;6.866;2023-09-18T17:41:22;22.10;99.90
25128;DHT22;13107;51.304;6.866;2023-09-18T17:45:24;22.00;99.90
25128;DHT22;13107;51.304;6.866;2023-09-18T17:49:26;21.90;99.90
25128;DHT22;13107;51.304;6.866;2023-09-18T17:53:28;21.30;99.90
25128;DHT22;13107;51.304;6.866;2023-09-18T17:57:30;20.20;99.90
25128;DHT22;13107;51.304;6.866;2023-09-18T18:01:33;18.10;99.90
25128;DHT22;13107;51.304;6.866;2023-09-18T18:05:36;17.20;99.90
25128;DHT22;13107;51.304;6.866;2023-09-18T18:09:38;16.80;99.90
25128;DHT22;13107;51.304;6.866;2023-09-18T18:13:39;16.60;99.90
25128;DHT22;13107;51.304;6.866;2023-09-18T18:17:42;16.50;99.90
25128;DHT22;13107;51.304;6.866;2023-09-18T18:21:44;16.60;99.90
25128;DHT22;13107;51.304;6.866;2023-09-18T18:25:45;16.50;99.90
25128;DHT22;13107;51.304;6.866;2023-09-18T18:29:48;16.40;99.90
25128;DHT22;13107;51.304;6.866;2023-09-18T18:33:59;16.40;99.90
25128;DHT22;13107;51.304;6.866;2023-09-18T18:38:01;16.30;99.90
25128;DHT22;13107;51.304;6.866;2023-09-18T18:42:04;16.20;99.90
25128;DHT22;13107;51.304;6.866;2023-09-18T18:46:06;16.20;99.90
25128;DHT22;13107;51.304;6.866;2023-09-18T18:50:11;16.20;99.90
25128;DHT22;13107;51.304;6.866;2023-09-18T18:54:13;16.10;99.90
25128;DHT22;13107;51.304;6.866;2023-09-18T18:58:15;16.00;99.90
25128;DHT22;13107;51.304;6.866;2023-09-18T19:02:17;16.00;99.90
25128;DHT22;13107;51.304;6.866;2023-09-18T19:06:19;16.00;99.90
25128;DHT22;13107;51.304;6.866;2023-09-18T19:10:21;16.00;99.90
25128;DHT22;13107;51.304;6.866;2023-09-18T19:14:22;15.90;99.90
25128;DHT22;13107;51.304;6.866;2023-09-18T19:18:25;15.90;99.90
25128;DHT22;13107;51.304;6.866;2023-09-18T19:22:27;15.90;99.90
25128;DHT22;13107;51.304;6.866;2023-09-18T19:26:29;15.90;99.90
25128;DHT22;13107;51.304;6.866;2023-09-18T19:30:31;15.90;99.90
25128;DHT22;13107;51.304;6.866;2023-09-18T19:34:33;15.90;99.90
25128;DHT22;13107;51.304;6.866;2023-09-18T19:38:35;15.80;99.90
25128;DHT22;13107;51.304;6.866;2023-09-18T19:42:38;15.80;99.90
25128;DHT22;13107;51.304;6.866;2023-09-18T19:46:40;15.80;99.90
25128;DHT22;13107;51.304;6.866;2023-09-18T19:50:42;15.80;99.90
25128;DHT22;13107;51.304;6.866;2023-09-18T19:54:44;15.90;99.90
25128;DHT22;13107;51.304;6.866;2023-09-18T19:58:47;15.80;99.90
25128;DHT22;13107;51.304;6.866;2023-09-18T20:02:50;15.80;99.90
25128;DHT22;13107;51.304;6.866;2023-09-18T20:06:53;15.90;99.90
25128;DHT22;13107;51.304;6.866;2023-09-18T20:10:55;15.90;99.90
25128;DHT22;13107;51.304;6.866;2023-09-18T20:15:00;15.90;99.90
25128;DHT22;13107;51.304;6.866;2023-09-18T20:19:02;15.90;99.90
25128;DHT22;13107;51.304;6.866;2023-09-18T20:23:04;15.90;99.90
25128;DHT22;13107;51.304;6.866;2023-09-18T20:27:06;15.90;99.90
25128;DHT22;13107;51.304;6.866;2023-09-18T20:31:10;15.90;99.90
25128;DHT22;13107;51.304;6.866;2023-09-18T20:35:12;15.90;99.90
25128;DHT22;13107;51.304;6.866;2023-09-18T20:39:16;15.90;99.90
25128;DHT22;13107;51.304;6.866;2023-09-18T20:43:18;15.80;99.90
25128;DHT22;13107;51.304;6.866;2023-09-18T20:47:25;15.70;99.90
25128;DHT22;13107;51.304;6.866;2023-09-18T20:51:30;15.70;99.90
25128;DHT22;13107;51.304;6.866;2023-09-18T20:55:33;15.70;99.90
25128;DHT22;13107;51.304;6.866;2023-09-18T20:59:35;15.70;99.90
25128;DHT22;13107;51.304;6.866;2023-09-18T21:03:45;15.80;99.90
25128;DHT22;13107;51.304;6.866;2023-09-18T21:07:49;15.80;99.90
25128;DHT22;13107;51.304;6.866;2023-09-18T21:11:51;15.80;99.90
25128;DHT22;13107;51.304;6.866;2023-09-18T21:15:52;15.80;99.90
25128;DHT22;13107;51.304;6.866;2023-09-18T21:19:54;15.80;99.90
25128;DHT22;13107;51.304;6.866;2023-09-18T21:23:56;15.70;99.90
25128;DHT22;13107;51.304;6.866;2023-09-18T21:27:59;15.70;99.90
25128;DHT22;13107;51.304;6.866;2023-09-18T21:32:02;15.80;99.90
25128;DHT22;13107;51.304;6.866;2023-09-18T21:36:15;15.70;99.90
25128;DHT22;13107;51.304;6.866;2023-09-18T21:40:18;15.70;99.90
25128;DHT22;13107;51.304;6.866;2023-09-18T21:44:20;15.70;99.90
25128;DHT22;13107;51.304;6.866;2023-09-18T21:48:22;15.80;99.90
25128;DHT22;13107;51.304;6.866;2023-09-18T21:52:24;15.70;99.90
25128;DHT22;13107;51.304;6.866;2023-09-18T21:56:25;15.70;99.90
25128;DHT22;13107;51.304;6.866;2023-09-18T22:00:27;15.60;99.90
25128;DHT22;13107;51.304;6.866;2023-09-18T22:04:30;15.60;99.90
25128;DHT22;13107;51.304;6.866;2023-09-18T22:08:34;15.60;99.90
25128;DHT22;13107;51.304;6.866;2023-09-18T22:12:38;15.60;99.90
25128;DHT22;13107;51.304;6.866;2023-09-18T22:16:40;15.60;99.90
25128;DHT22;13107;51.304;6.866;2023-09-18T22:20:42;15.60;99.90
25128;DHT22;13107;51.304;6.866;2023-09-18T22:24:44;15.60;99.90
25128;DHT22;13107;51.304;6.866;2023-09-18T22:28:47;15.60;99.90
25128;DHT22;13107;51.304;6.866;2023-09-18T22:32:49;15.60;99.90
25128;DHT22;13107;51.304;6.866;2023-09-18T22:36:52;15.60;99.90
25128;DHT22;13107;51.304;6.866;2023-09-18T22:58:20;15.50;99.90
25128;DHT22;13107;51.304;6.866;2023-09-18T23:02:30;15.40;99.90
25128;DHT22;13107;51.304;6.866;2023-09-18T23:06:32;15.40;99.90
25128;DHT22;13107;51.304;6.866;2023-09-18T23:10:36;15.30;99.90
25128;DHT22;13107;51.304;6.866;2023-09-18T23:14:39;15.30;99.90
25128;DHT22;13107;51.304;6.866;2023-09-18T23:18:41;15.20;99.90
25128;DHT22;13107;51.304;6.866;2023-09-18T23:22:45;15.10;99.90
25128;DHT22;13107;51.304;6.866;2023-09-18T23:26:49;15.10;99.90
25128;DHT22;13107;51.304;6.866;2023-09-18T23:30:51;15.10;99.90
25128;DHT22;13107;51.304;6.866;2023-09-18T23:34:54;15.10;99.90
25128;DHT22;13107;51.304;6.866;2023-09-18T23:39:01;15.00;99.90
25128;DHT22;13107;51.304;6.866;2023-09-18T23:43:09;15.00;99.90
25128;DHT22;13107;51.304;6.866;2023-09-18T23:47:11;15.00;99.90
25128;DHT22;13107;51.304;6.866;2023-09-18T23:51:14;15.00;99.90
25128;DHT22;13107;51.304;6.866;2023-09-18T23:55:15;15.00;99.90
25128;DHT22;13107;51.304;6.866;2023-09-18T23:59:18;15.00;99.90
